Rock Hill, SC

07:30 PM EDT on Ιούλιος 29, 2016 (GMT -0400)
Country Club Estates | | Change Station

Elev 591 ft 34.89 °N, 81.03 °W | Updated 24 seconds ago

Clear
Αίθριος
84.7 ° F
Feels Like 91 ° F
N
0.0
Ανεμος Μεταβλητός Ανεμος from Βόρειος
Gusts 0.0 mph

Σήμερα
High -- | Low -- ° F
--% Chance of Precip.
Yesterday
High -- | Low -- ° F
Precip. -- in
Ατμοσφαιρική Πίεση 29.89 in
Ορατότητα 10.0 Μίλια
Σύννεφα Αίθριος
Δείκτης Δυσφορίας 91 ° F
Σημείο Δρόσου 72 ° F
Υγρασία 66%
Rainfall in
Snow Depth Not available.
6:31 AM 8:28 PM
Μηνίσκος, 18% visible
METAR KUZA 292254Z AUTO 23007KT 10SM CLR 31/21 A2994 RMK AO2 SLP121 T03110206
Ατμοσφαιρική Πίεση 29.89 in
Ορατότητα 10.0 Μίλια
Σύννεφα Αίθριος
Δείκτης Δυσφορίας 91 ° F
Σημείο Δρόσου 72 ° F
Υγρασία 66%
Rainfall in
Snow Depth Not available.
6:31 AM 8:28 PM
Μηνίσκος, 18% visible
METAR KUZA 292254Z AUTO 23007KT 10SM CLR 31/21 A2994 RMK AO2 SLP121 T03110206

10-Day Weather Forecast

Almanac

Αστρονομία

Jul. 29, 2016 Rise Set
Actual Time
Civil Twilight
Nautical Twilight
Astronomical Twilight
Moon
Length Of Visible Light
Διάρκεια ημέρας
Tomorrow will be .
, % of the Moon is Illuminated

Today's Extremes

State Highs State Lows

Community

WunderPhotos

Upload Photos

1,928,439 photos uploaded!

WunderBlog® & News

Nearby

Air Quality

  Air Quality AQ Index Pollutant
Not available.

Snow Depth

Station Depth Elevation

Earthquake Activity

City Distance Mag. Time & Date
Minimum magnitude displayed is 2.5.

Coastal Water Temperatures

Τοποθεσία Θερμοκρασία

Stations

Nearby Weather Stations

Station Location Temp Δείκτης Ψυχρότητας Σημείο Δρόσου Υγρασία Ανεμος Precip. Elev Ενημερώθηκε Type
                   

Watches & Warnings

There are currently no watches in effect.